(°C)
(°C)
-5°
-4°
-3°
-3°
-3°
-3°
-4°
ЮИ
ЮИ
ЮИ
ЮИ
ЮИ
И
ИСИ
(km/h)
19-24
17-27
15-28
12-25
8-19
6-10
8-9
(mm)
0
0
0
0
0
0
0
(%)
0
0
0
0
0
0
14

Издигане на слънцето

/ 23.9°
sun-icon
UV 0
07:35
16:53
Намаляваща полу-луна (232°)
21:34
10:05

METAR за 46.38°С 44.32°И (URWI)

Час Условия Температура/
Точка на оросяване
Вятър Видимост Времето Облаци Налягане Промяна Сурови
IFR 1°C / -1°C 150º 12kt >10km - Overcast 700ft 1013 Temporary: Visibility 4000. Mist . Broken Clouds 100ft. . Runway 09: Dry snow, 11-25% contamination with <1mm, friction coefficient 0.50. URWI 220900Z 15006MPS 9999 OVC007 01/M01 Q1013 R09/420050 TEMPO 4000 BR BKN001
IFR 0°C / -1°C 150º 8kt 9000m - Overcast 800ft 1014 Temporary: Visibility 4000. Mist . Broken Clouds 100ft. . Runway 09: Dry snow, 11-25% contamination with <1mm, friction coefficient 0.50. URWI 220830Z 15004MPS 9000 OVC008 00/M01 Q1014 R09/420050 TEMPO 4000 BR BKN001
IFR 0°C / -2°C 140º 8kt 8000m - Overcast 700ft 1014 Temporary: Visibility 4000. Light freezing Rain . Mist . Scattered Clouds 100ft. Overcast 1700ft. . Runway 09: Dry snow, 11-25% contamination with <1mm, friction coefficient 0.50. URWI 220800Z 14004MPS 8000 OVC007 M00/M02 Q1014 R09/420050 TEMPO 4000 -FZRA BR SCT001 OVC017
IFR 0°C / -2°C 180º 6kt 9000m - Overcast 600ft 1015 Temporary: Visibility 4000. Light freezing Rain . Mist . Scattered Clouds 100ft. Overcast 1700ft. . Runway 09: Dry snow, 11-25% contamination with <1mm, friction coefficient 0.50. URWI 220730Z 18003MPS 9000 OVC006 M00/M02 Q1015 R09/420050 TEMPO 4000 -FZRA BR SCT001 OVC017
IFR -1°C / -2°C 210º variable 180º to 240º 4kt 9000m - Overcast 500ft 1015 Temporary: Visibility 4000. Light freezing Rain . Mist . Scattered Clouds 100ft. Overcast 1700ft. . Runway 09: Dry snow, 11-25% contamination with <1mm, friction coefficient 0.50. URWI 220700Z 21002MPS 180V240 9000 OVC005 M01/M02 Q1015 R09/420050 TEMPO 4000 -FZRA BR SCT001 OVC017
LIFR -1°C / -2°C 240º 6kt 8000m - Overcast 300ft 1014 Temporary: Visibility 4000. Light freezing Rain . Mist . Scattered Clouds 100ft. Overcast 1700ft. RMK QBB110 . Runway 09: Dry snow, 11-25% contamination with <1mm, friction coefficient 0.50. URWI 220630Z 24003MPS 8000 OVC003 M01/M02 Q1014 R09/420050 TEMPO 4000 -FZRA BR SCT001 OVC017 RMK QBB110
LIFR -1°C / -1°C 210º 12kt 4800m Mist Vertical Visibility of 0ft. 1014 Temporary: Visibility 4000. Light freezing Rain . Mist . Scattered Clouds 100ft. Overcast 1700ft. RMK QBB120 . Runway 09: Dry snow, 11-25% contamination with <1mm, friction coefficient 0.50. URWI 220600Z 21006MPS 4800 BR OVC004 M01/M01 Q1014 R09/420050 TEMPO 4000 -FZRA BR SCT001 OVC017 RMK QBB120
LIFR 0°C / -1°C 180º 14kt 7000m - Overcast 300ft 1014 Temporary: Visibility 4000. Light freezing Rain . Mist . Scattered Clouds 500ft. Overcast 1700ft. RMK QBB100 . Runway 09: Dry snow, 11-25% contamination with <1mm, friction coefficient 0.50. URWI 220530Z 18007MPS 7000 OVC003 M00/M01 Q1014 R09/420050 TEMPO 4000 -FZRA BR SCT005 OVC017 RMK QBB100
0°C / -1°C 180º 14kt >10km - 1013 - URWI 220500Z AUTO 18007MPS 9999 // ///006/// 00/M01 Q1013
VFR -1°C / -3°C 190º 16kt >10km - Clear 1013 - URWI 220430Z AUTO 19008MPS 9999 // NSC M01/M03 Q1013
VFR -1°C / -4°C 180º 16kt >10km - Clear 1012 - URWI 220400Z AUTO 18008MPS 9999 // NSC M01/M04 Q1012
VFR -1°C / -5°C 160º 12kt >10km - Clear 1012 - URWI 220330Z AUTO 16006MPS 9999 // NSC M01/M05 Q1012
VFR -1°C / -6°C 160º 14kt >10km - Clear 1011 - URWI 220300Z AUTO 16007MPS 9999 // NSC M01/M06 Q1011
VFR -2°C / -6°C 160º 16kt >10km - Clear 1011 - URWI 220230Z AUTO 16008MPS 9999 // NSC M02/M06 Q1011
-3°C / -6°C 150º 10kt >10km - 1012 - URWI 220200Z AUTO 15005MPS 9999 // ///////// M03/M06 Q1012
-2°C / -6°C 110º 14kt >10km - 1012 - URWI 220130Z AUTO 11007MPS 9999 // ///////// M02/M06 Q1012
-2°C / -6°C 160º 12kt >10km - 1013 - URWI 220100Z AUTO 16006MPS 9999 // ///////// M02/M06 Q1013
-1°C / -6°C 170º 14kt >10km - 1013 - URWI 220030Z AUTO 17007MPS 9999 // ///////// M01/M06 Q1013
-1°C / -6°C 180º 16kt >10km - 1014 - URWI 220000Z AUTO 18008MPS 9999 // ///////// M01/M06 Q1014
-1°C / -6°C 180º 17kt >10km - 1014 - URWI 212330Z AUTO 18009MPS 9999 // ///////// M01/M06 Q1014
-1°C / -5°C 180º 16kt >10km - 1014 - URWI 212300Z AUTO 18008MPS 9999 // ///////// M01/M05 Q1014
-2°C / -5°C 170º 12kt >10km - 1014 - URWI 212230Z AUTO 17006MPS 9999 // ///////// M02/M05 Q1014
VFR -2°C / -5°C 180º 12kt >10km - Clear 1014 - URWI 212200Z AUTO 18006MPS 9999 // NSC M02/M05 Q1014
-3°C / -5°C 170º 12kt >10km - 1015 - URWI 212130Z AUTO 17006MPS 9999 // ///////// M03/M05 Q1015

IFR

1°C / -1°C

[Още]
Вятър 150º 12kt
Видимост >10km
Времето -
Облаци Overcast 700ft
Налягане 1013
Промяна Temporary: Visibility 4000. Mist . Broken Clouds 100ft. . Runway 09: Dry snow, 11-25% contamination with <1mm, friction coefficient 0.50.
Сурови URWI 220900Z 15006MPS 9999 OVC007 01/M01 Q1013 R09/420050 TEMPO 4000 BR BKN001

IFR

0°C / -1°C

[Още]
Вятър 150º 8kt
Видимост 9000m
Времето -
Облаци Overcast 800ft
Налягане 1014
Промяна Temporary: Visibility 4000. Mist . Broken Clouds 100ft. . Runway 09: Dry snow, 11-25% contamination with <1mm, friction coefficient 0.50.
Сурови URWI 220830Z 15004MPS 9000 OVC008 00/M01 Q1014 R09/420050 TEMPO 4000 BR BKN001

IFR

0°C / -2°C

[Още]
Вятър 140º 8kt
Видимост 8000m
Времето -
Облаци Overcast 700ft
Налягане 1014
Промяна Temporary: Visibility 4000. Light freezing Rain . Mist . Scattered Clouds 100ft. Overcast 1700ft. . Runway 09: Dry snow, 11-25% contamination with <1mm, friction coefficient 0.50.
Сурови URWI 220800Z 14004MPS 8000 OVC007 M00/M02 Q1014 R09/420050 TEMPO 4000 -FZRA BR SCT001 OVC017

IFR

0°C / -2°C

[Още]
Вятър 180º 6kt
Видимост 9000m
Времето -
Облаци Overcast 600ft
Налягане 1015
Промяна Temporary: Visibility 4000. Light freezing Rain . Mist . Scattered Clouds 100ft. Overcast 1700ft. . Runway 09: Dry snow, 11-25% contamination with <1mm, friction coefficient 0.50.
Сурови URWI 220730Z 18003MPS 9000 OVC006 M00/M02 Q1015 R09/420050 TEMPO 4000 -FZRA BR SCT001 OVC017

IFR

-1°C / -2°C

[Още]
Вятър 210º variable 180º to 240º 4kt
Видимост 9000m
Времето -
Облаци Overcast 500ft
Налягане 1015
Промяна Temporary: Visibility 4000. Light freezing Rain . Mist . Scattered Clouds 100ft. Overcast 1700ft. . Runway 09: Dry snow, 11-25% contamination with <1mm, friction coefficient 0.50.
Сурови URWI 220700Z 21002MPS 180V240 9000 OVC005 M01/M02 Q1015 R09/420050 TEMPO 4000 -FZRA BR SCT001 OVC017

LIFR

-1°C / -2°C

[Още]
Вятър 240º 6kt
Видимост 8000m
Времето -
Облаци Overcast 300ft
Налягане 1014
Промяна Temporary: Visibility 4000. Light freezing Rain . Mist . Scattered Clouds 100ft. Overcast 1700ft. RMK QBB110 . Runway 09: Dry snow, 11-25% contamination with <1mm, friction coefficient 0.50.
Сурови URWI 220630Z 24003MPS 8000 OVC003 M01/M02 Q1014 R09/420050 TEMPO 4000 -FZRA BR SCT001 OVC017 RMK QBB110

LIFR

-1°C / -1°C

[Още]
Вятър 210º 12kt
Видимост 4800m
Времето Mist
Облаци Vertical Visibility of 0ft.
Налягане 1014
Промяна Temporary: Visibility 4000. Light freezing Rain . Mist . Scattered Clouds 100ft. Overcast 1700ft. RMK QBB120 . Runway 09: Dry snow, 11-25% contamination with <1mm, friction coefficient 0.50.
Сурови URWI 220600Z 21006MPS 4800 BR OVC004 M01/M01 Q1014 R09/420050 TEMPO 4000 -FZRA BR SCT001 OVC017 RMK QBB120

LIFR

0°C / -1°C

[Още]
Вятър 180º 14kt
Видимост 7000m
Времето -
Облаци Overcast 300ft
Налягане 1014
Промяна Temporary: Visibility 4000. Light freezing Rain . Mist . Scattered Clouds 500ft. Overcast 1700ft. RMK QBB100 . Runway 09: Dry snow, 11-25% contamination with <1mm, friction coefficient 0.50.
Сурови URWI 220530Z 18007MPS 7000 OVC003 M00/M01 Q1014 R09/420050 TEMPO 4000 -FZRA BR SCT005 OVC017 RMK QBB100

0°C / -1°C

[Още]
Вятър 180º 14kt
Видимост >10km
Времето -
Облаци
Налягане 1013
Промяна -
Сурови URWI 220500Z AUTO 18007MPS 9999 // ///006/// 00/M01 Q1013

VFR

-1°C / -3°C

[Още]
Вятър 190º 16kt
Видимост >10km
Времето -
Облаци Clear
Налягане 1013
Промяна -
Сурови URWI 220430Z AUTO 19008MPS 9999 // NSC M01/M03 Q1013

VFR

-1°C / -4°C

[Още]
Вятър 180º 16kt
Видимост >10km
Времето -
Облаци Clear
Налягане 1012
Промяна -
Сурови URWI 220400Z AUTO 18008MPS 9999 // NSC M01/M04 Q1012

VFR

-1°C / -5°C

[Още]
Вятър 160º 12kt
Видимост >10km
Времето -
Облаци Clear
Налягане 1012
Промяна -
Сурови URWI 220330Z AUTO 16006MPS 9999 // NSC M01/M05 Q1012

VFR

-1°C / -6°C

[Още]
Вятър 160º 14kt
Видимост >10km
Времето -
Облаци Clear
Налягане 1011
Промяна -
Сурови URWI 220300Z AUTO 16007MPS 9999 // NSC M01/M06 Q1011

VFR

-2°C / -6°C

[Още]
Вятър 160º 16kt
Видимост >10km
Времето -
Облаци Clear
Налягане 1011
Промяна -
Сурови URWI 220230Z AUTO 16008MPS 9999 // NSC M02/M06 Q1011

-3°C / -6°C

[Още]
Вятър 150º 10kt
Видимост >10km
Времето -
Облаци
Налягане 1012
Промяна -
Сурови URWI 220200Z AUTO 15005MPS 9999 // ///////// M03/M06 Q1012

-2°C / -6°C

[Още]
Вятър 110º 14kt
Видимост >10km
Времето -
Облаци
Налягане 1012
Промяна -
Сурови URWI 220130Z AUTO 11007MPS 9999 // ///////// M02/M06 Q1012

-2°C / -6°C

[Още]
Вятър 160º 12kt
Видимост >10km
Времето -
Облаци
Налягане 1013
Промяна -
Сурови URWI 220100Z AUTO 16006MPS 9999 // ///////// M02/M06 Q1013

-1°C / -6°C

[Още]
Вятър 170º 14kt
Видимост >10km
Времето -
Облаци
Налягане 1013
Промяна -
Сурови URWI 220030Z AUTO 17007MPS 9999 // ///////// M01/M06 Q1013

-1°C / -6°C

[Още]
Вятър 180º 16kt
Видимост >10km
Времето -
Облаци
Налягане 1014
Промяна -
Сурови URWI 220000Z AUTO 18008MPS 9999 // ///////// M01/M06 Q1014

-1°C / -6°C

[Още]
Вятър 180º 17kt
Видимост >10km
Времето -
Облаци
Налягане 1014
Промяна -
Сурови URWI 212330Z AUTO 18009MPS 9999 // ///////// M01/M06 Q1014

-1°C / -5°C

[Още]
Вятър 180º 16kt
Видимост >10km
Времето -
Облаци
Налягане 1014
Промяна -
Сурови URWI 212300Z AUTO 18008MPS 9999 // ///////// M01/M05 Q1014

-2°C / -5°C

[Още]
Вятър 170º 12kt
Видимост >10km
Времето -
Облаци
Налягане 1014
Промяна -
Сурови URWI 212230Z AUTO 17006MPS 9999 // ///////// M02/M05 Q1014

VFR

-2°C / -5°C

[Още]
Вятър 180º 12kt
Видимост >10km
Времето -
Облаци Clear
Налягане 1014
Промяна -
Сурови URWI 212200Z AUTO 18006MPS 9999 // NSC M02/M05 Q1014

-3°C / -5°C

[Още]
Вятър 170º 12kt
Видимост >10km
Времето -
Облаци
Налягане 1015
Промяна -
Сурови URWI 212130Z AUTO 17006MPS 9999 // ///////// M03/M05 Q1015

TAF за 46.38°С 44.32°И (URWI)

From till


From till Wind 160º 6kt. Gust 19kt. Visibility 6000m. Scattered Clouds 800ft. Broken Clouds 2000ft.
With 40% probability, Temporarly from till Light freezing Rain . Scattered Clouds 500ft. Overcast 1700ft. Broken Clouds 2000ft.
Temporarly from till Wind 200º 6kt. Gust 19kt. Light Showers Snow Light Showers Rain . Broken Clouds 500ft. Broken Clouds 2000ft.

Сурови: TAF URWI 220758Z 2209/2218 16003G10MPS 6000 SCT008 BKN020CB TEMPO 2209/2218 20003G10MPS -SHSNRA BKN005 BKN020CB PROB40 TEMPO 2209/2218 -FZRA SCT005 OVC017 BKN020CB

Радар и валежи в момента за 46.38°С 44.32°И

Ситен дъжд
Лек
Умерен
Тежък
Много тежък
Аве

Маркерът за локация обозначава 46.38°С 44.32°И. Анимацията показва Радара за валежи за последния час, както и прогноза за 1h. Дъждът или лекият сняг може да са невидими за радара. Интензивността на валежите е обозначена с цветни кодове, вариращи от светлосиньо до оранжево.

Актуални сателитни и дъждовни снимки за 46.38°С 44.32°И

Маркерът за локация е поставен върху 46.38°С 44.32°И. [Още]

Сателитното изображение в реално време съчетава видимата светлина през деня с инфрачервеното лъчение през нощта. През нощта изображението не е тъмно, тъй като инфрачервеното лъчение може да открива температурни разлики. За съжаление ниските облаци и мъглата са трудни за разграничаване от температурите на земята и затова могат да бъдат почти невидими през нощта. Сателитните изображения на Meteosat за Европа се актуализират в реално време на всеки 5 минути. Изображенията GOES-16/GOES-17 (Северна и Южна Америка) и Химавари (Азия) се актуализират на всеки 10 минути.

Всички права запазени 2022 EUMETSAT / meteoblue. / Всички права запазени 2022 meteoblue